Ferros, Brazil
Current Conditions -  °F | °C
As of 11:00 AM on Friday 19 Dec 2014 (Local Time) from SBIP Reporting Station
Broken Clouds Broken Clouds  
Wind Chill: 79°   Ceiling: 3500
Heat Index: 81°   Visibility: 6mi
Dew Point: 68°   Wind: 5mph
Humidity: 69%   Direction: 60°ENE
Pressure: 29.91"   Gusts: NA
Location:  19.23°S, 43.02°W
Report Text: SBIP 191300Z 06004KT 9999 FEW010 BKN035 26/20 Q1013
Loading
Personal Weather Stations






























Interactive Weather Map New forecast layout! Learn more

10-Day Weather Forecast

Advertisements
Track Severe Weather on mobile